Time;durP1;ratioP1;P1;durP2;ratioP2;P2;SDS_P1;SDS_P2;PMS_P1;PMS_P2;Temp;Humidity;BMP_temperature;BMP_pressure;BME280_temperature;BME280_humidity;BME280_pressure;Samples;Min_cycle;Max_cycle;Signal;HPM_P1;HPM_P2
2023/10/17 00:01:18;;;;;;;2.53;2.07;;;3.30;99.90;;;;;;5033683;28;20500;-80
2023/10/17 00:03:46;;;;;;;3.00;2.27;;;3.30;99.90;;;;;;5038845;28;20554;-79
2023/10/17 00:06:16;;;;;;;2.73;2.13;;;3.30;99.90;;;;;;5046095;28;20448;-80
2023/10/17 00:08:44;;;;;;;6.23;2.57;;;3.40;99.90;;;;;;5043274;28;20476;-78
2023/10/17 00:11:21;;;;;;;1.77;1.50;;;3.30;99.90;;;;;;5046553;28;20445;-78
2023/10/17 00:14:08;;;;;;;2.83;1.90;;;3.30;99.90;;;;;;5044056;28;20465;-78
2023/10/17 00:16:37;;;;;;;2.40;2.30;;;3.30;99.90;;;;;;5043295;28;20455;-81
2023/10/17 00:19:08;;;;;;;2.20;1.73;;;3.30;99.90;;;;;;5046023;28;20449;-81
2023/10/17 00:21:36;;;;;;;1.60;1.50;;;3.30;99.90;;;;;;5039497;28;20476;-79
2023/10/17 00:24:08;;;;;;;2.93;2.40;;;3.30;99.90;;;;;;5040014;28;20500;-81
2023/10/17 00:26:36;;;;;;;4.80;3.07;;;3.20;99.90;;;;;;5041830;28;20823;-79
2023/10/17 00:29:05;;;;;;;2.73;2.20;;;3.20;99.90;;;;;;5043319;28;20476;-83
2023/10/17 00:31:32;;;;;;;1.60;1.50;;;3.20;99.90;;;;;;5042862;28;20635;-80
2023/10/17 00:34:01;;;;;;;4.10;2.50;;;3.20;99.90;;;;;;5047029;28;20441;-81
2023/10/17 00:36:29;;;;;;;2.37;2.17;;;3.20;99.90;;;;;;5038407;28;20544;-80
2023/10/17 00:39:07;;;;;;;3.27;2.70;;;3.20;99.90;;;;;;5039105;28;20461;-82
2023/10/17 00:41:50;;;;;;;2.27;2.07;;;3.10;99.90;;;;;;5046444;28;20528;-82
2023/10/17 00:44:27;;;;;;;2.90;2.07;;;3.10;99.90;;;;;;5043282;28;20930;-80
2023/10/17 00:46:55;;;;;;;4.80;1.73;;;3.20;99.90;;;;;;5046379;28;20458;-80
2023/10/17 00:49:24;;;;;;;4.37;2.20;;;3.20;99.90;;;;;;5045690;28;20507;-82
2023/10/17 00:51:55;;;;;;;2.10;1.90;;;3.20;99.90;;;;;;5045935;28;20840;-83
2023/10/17 00:54:24;;;;;;;3.03;1.70;;;3.30;99.90;;;;;;5046169;28;20464;-81
2023/10/17 00:56:54;;;;;;;2.00;1.40;;;3.30;99.90;;;;;;5040412;28;21023;-83
2023/10/17 00:59:25;;;;;;;1.70;1.33;;;3.30;99.90;;;;;;5041571;28;20457;-82
2023/10/17 01:01:55;;;;;;;2.70;1.50;;;3.30;99.90;;;;;;5041558;28;20494;-83
2023/10/17 01:04:24;;;;;;;1.53;1.43;;;3.30;99.90;;;;;;5042826;28;20546;-78
2023/10/17 01:06:54;;;;;;;1.70;1.60;;;3.30;99.90;;;;;;5046156;28;20449;-79
2023/10/17 01:09:24;;;;;;;1.83;1.50;;;3.30;99.90;;;;;;5045492;28;20534;-80
2023/10/17 01:11:54;;;;;;;1.93;1.50;;;3.30;99.90;;;;;;5046160;28;20444;-81
2023/10/17 01:14:23;;;;;;;1.63;1.20;;;3.30;99.90;;;;;;5041116;28;21041;-80
2023/10/17 01:16:52;;;;;;;2.30;1.70;;;3.30;99.90;;;;;;5043254;28;20460;-78
2023/10/17 01:19:21;;;;;;;1.20;1.10;;;3.30;99.90;;;;;;5045779;28;20506;-79
2023/10/17 01:21:49;;;;;;;3.13;1.87;;;3.30;99.90;;;;;;5043239;28;20457;-80
2023/10/17 01:24:18;;;;;;;1.67;1.37;;;3.20;99.90;;;;;;5044625;28;20485;-77
2023/10/17 01:26:46;;;;;;;3.67;1.77;;;3.20;99.90;;;;;;5044347;28;20464;-81
2023/10/17 01:29:14;;;;;;;1.87;1.17;;;3.10;99.90;;;;;;5043792;28;21096;-80
2023/10/17 01:31:42;;;;;;;3.90;1.13;;;3.20;99.90;;;;;;5045245;28;20516;-79
2023/10/17 01:34:11;;;;;;;1.30;1.20;;;3.20;99.90;;;;;;5041651;28;20473;-77
2023/10/17 01:36:38;;;;;;;1.80;1.23;;;3.30;99.90;;;;;;5041496;28;20444;-79
2023/10/17 01:39:08;;;;;;;3.00;1.40;;;3.30;99.90;;;;;;5032260;28;20897;-79
2023/10/17 01:41:38;;;;;;;4.90;1.60;;;3.30;99.90;;;;;;5042823;28;20444;-80
2023/10/17 01:44:05;;;;;;;1.43;1.20;;;3.40;99.90;;;;;;5037810;28;20492;-81
2023/10/17 01:46:32;;;;;;;1.50;1.00;;;3.40;99.90;;;;;;5044166;28;20928;-82
2023/10/17 01:49:09;;;;;;;2.27;1.53;;;3.40;99.90;;;;;;5043518;28;20518;-79
2023/10/17 01:51:37;;;;;;;2.00;1.47;;;3.50;99.90;;;;;;5042401;28;20447;-80
2023/10/17 01:54:07;;;;;;;1.70;1.20;;;3.60;99.90;;;;;;5048010;28;20456;-81
2023/10/17 01:56:39;;;;;;;0.97;0.87;;;3.60;99.90;;;;;;5049246;28;20455;-81
2023/10/17 01:59:12;;;;;;;2.93;1.43;;;3.60;99.90;;;;;;5048614;28;20502;-79
2023/10/17 02:01:40;;;;;;;2.10;1.67;;;3.70;99.90;;;;;;5049971;28;20455;-80
2023/10/17 02:04:12;;;;;;;1.60;1.20;;;3.60;99.90;;;;;;5041968;28;20492;-79
2023/10/17 02:06:40;;;;;;;1.30;1.20;;;3.60;99.90;;;;;;5050299;28;20440;-81
2023/10/17 02:09:20;;;;;;;4.93;1.30;;;3.60;99.90;;;;;;5046735;28;20542;-82
2023/10/17 02:11:50;;;;;;;2.03;1.50;;;3.60;99.90;;;;;;5039403;28;20827;-82
2023/10/17 02:14:18;;;;;;;2.43;1.13;;;3.60;99.90;;;;;;5049240;28;20448;-79
2023/10/17 02:16:45;;;;;;;2.27;1.40;;;3.60;99.90;;;;;;5040244;28;20468;-81
2023/10/17 02:19:12;;;;;;;2.93;1.67;;;3.60;99.90;;;;;;5049498;28;20528;-81
2023/10/17 02:21:39;;;;;;;1.60;1.40;;;3.60;99.90;;;;;;5047953;28;21181;-81
2023/10/17 02:24:07;;;;;;;2.43;1.77;;;3.60;99.90;;;;;;5049325;28;20556;-81
2023/10/17 02:26:42;;;;;;;3.53;1.33;;;3.50;99.90;;;;;;5047051;28;20464;-79
2023/10/17 02:29:11;;;;;;;1.67;1.43;;;3.50;99.90;;;;;;5046173;28;20544;-79
2023/10/17 02:31:40;;;;;;;2.30;1.27;;;3.40;99.90;;;;;;5048729;28;21017;-80
2023/10/17 02:34:10;;;;;;;2.33;1.90;;;3.50;99.90;;;;;;5047562;28;20500;-82
2023/10/17 02:36:37;;;;;;;2.47;1.30;;;3.50;99.90;;;;;;5036875;28;20924;-78
2023/10/17 02:39:05;;;;;;;2.03;1.40;;;3.40;99.90;;;;;;5047769;28;20932;-79
2023/10/17 02:41:33;;;;;;;1.90;1.50;;;3.40;99.90;;;;;;5041343;28;20479;-79
2023/10/17 02:44:03;;;;;;;2.93;1.13;;;3.50;99.90;;;;;;5046184;28;20591;-79
2023/10/17 02:46:33;;;;;;;3.37;1.30;;;3.50;99.90;;;;;;5048013;28;20499;-79
2023/10/17 02:49:06;;;;;;;3.47;1.50;;;3.50;99.90;;;;;;5042350;28;20992;-80
2023/10/17 02:51:34;;;;;;;3.17;1.40;;;3.60;99.90;;;;;;5046304;28;20492;-78
2023/10/17 02:54:09;;;;;;;1.40;1.27;;;3.50;99.90;;;;;;5042825;28;20474;-80
2023/10/17 02:56:46;;;;;;;2.80;1.30;;;3.50;99.90;;;;;;5048304;28;20986;-79
2023/10/17 02:59:13;;;;;;;1.97;1.47;;;3.50;99.90;;;;;;5047495;28;21017;-81
2023/10/17 03:01:42;;;;;;;2.27;1.20;;;3.40;99.90;;;;;;5047554;28;20640;-80
2023/10/17 03:04:13;;;;;;;1.20;1.10;;;3.40;99.90;;;;;;5048324;28;20575;-81
2023/10/17 03:06:42;;;;;;;4.10;1.63;;;3.40;99.90;;;;;;5047265;28;20526;-80
2023/10/17 03:12:23;;;;;;;1.50;1.40;;;3.50;99.90;;;;;;5136241;27;21057;-77
2023/10/17 03:17:34;;;;;;;1.23;1.07;;;3.30;99.90;;;;;;5133625;27;20451;-77
2023/10/17 03:20:00;;;;;;;2.43;1.47;;;3.30;99.90;;;;;;5141859;27;20445;-77
2023/10/17 03:22:28;;;;;;;3.37;1.47;;;3.30;99.90;;;;;;5139350;27;20847;-78
2023/10/17 03:25:01;;;;;;;4.23;1.60;;;3.40;99.90;;;;;;5148262;27;20931;-77
2023/10/17 03:27:36;;;;;;;2.77;1.53;;;3.30;99.90;;;;;;5126077;27;20452;-78
2023/10/17 03:30:06;;;;;;;4.67;1.30;;;3.30;99.90;;;;;;5140671;27;20440;-78
2023/10/17 03:32:34;;;;;;;2.20;2.00;;;3.30;99.90;;;;;;5123263;27;20561;-78
2023/10/17 03:35:02;;;;;;;5.33;1.27;;;3.30;99.90;;;;;;5146185;27;20551;-79
2023/10/17 03:37:29;;;;;;;3.10;1.37;;;3.30;99.90;;;;;;5141022;27;20451;-78
2023/10/17 03:40:02;;;;;;;2.00;1.23;;;3.30;99.90;;;;;;5141488;27;20459;-78
2023/10/17 03:42:42;;;;;;;2.20;1.67;;;3.30;99.90;;;;;;5133030;27;20851;-79
2023/10/17 03:45:16;;;;;;;3.80;1.67;;;3.20;99.90;;;;;;5136933;27;20652;-79
2023/10/17 03:47:47;;;;;;;4.83;2.53;;;3.20;99.90;;;;;;5140052;27;20523;-79
2023/10/17 03:50:31;;;;;;;3.33;1.80;;;3.20;99.90;;;;;;5131521;27;20523;-79
2023/10/17 03:53:03;;;;;;;2.10;1.83;;;3.20;99.90;;;;;;5138168;27;20873;-79
2023/10/17 03:55:30;;;;;;;1.83;1.20;;;3.30;99.90;;;;;;5134288;27;21305;-78
2023/10/17 03:57:59;;;;;;;1.80;1.13;;;3.20;99.90;;;;;;5140514;27;20971;-78
2023/10/17 04:00:33;;;;;;;2.50;1.50;;;3.20;99.90;;;;;;5137335;27;20464;-79
2023/10/17 04:03:04;;;;;;;1.57;1.40;;;3.20;99.90;;;;;;5144385;27;20458;-78
2023/10/17 04:05:33;;;;;;;2.17;1.30;;;3.20;99.90;;;;;;5138566;27;20445;-79
2023/10/17 04:08:00;;;;;;;2.83;1.73;;;3.20;99.90;;;;;;5138767;27;20460;-79
2023/10/17 04:10:39;;;;;;;1.33;1.23;;;3.10;99.90;;;;;;5131674;27;20492;-79
2023/10/17 04:13:18;;;;;;;2.53;1.20;;;3.10;99.90;;;;;;5134136;27;20541;-78
2023/10/17 04:15:45;;;;;;;2.87;1.67;;;3.10;99.90;;;;;;5138998;27;20524;-78
2023/10/17 04:18:12;;;;;;;2.40;1.83;;;3.10;99.90;;;;;;5138349;27;20452;-78
2023/10/17 04:20:41;;;;;;;2.33;1.60;;;3.10;99.90;;;;;;5136107;27;20524;-78
2023/10/17 04:23:21;;;;;;;3.37;1.73;;;3.10;99.90;;;;;;5122522;27;20543;-78
2023/10/17 04:25:54;;;;;;;3.33;1.93;;;3.00;99.90;;;;;;5125626;27;20522;-79
2023/10/17 04:28:27;;;;;;;2.20;2.00;;;3.00;99.90;;;;;;5122531;27;20535;-79
2023/10/17 04:30:57;;;;;;;4.60;1.93;;;2.90;99.90;;;;;;5116987;27;20561;-78
2023/10/17 04:33:28;;;;;;;3.70;2.10;;;2.80;99.90;;;;;;5130696;27;20467;-78
2023/10/17 04:36:00;;;;;;;4.33;2.50;;;2.80;99.90;;;;;;5128037;27;20449;-78
2023/10/17 04:38:36;;;;;;;2.33;2.00;;;2.70;99.90;;;;;;5123755;27;20555;-79
2023/10/17 04:41:17;;;;;;;2.90;2.30;;;2.80;99.90;;;;;;5120855;27;20461;-78
2023/10/17 04:43:48;;;;;;;3.47;2.00;;;2.60;99.90;;;;;;5124100;27;20457;-78
2023/10/17 04:46:16;;;;;;;2.13;1.70;;;2.60;99.90;;;;;;5126268;27;20449;-78
2023/10/17 04:48:46;;;;;;;2.27;1.90;;;2.70;99.90;;;;;;5120008;27;20499;-78
2023/10/17 04:51:20;;;;;;;2.87;1.50;;;2.80;99.90;;;;;;5122608;27;20516;-78
2023/10/17 04:53:55;;;;;;;3.10;1.90;;;2.70;99.90;;;;;;5122115;27;20513;-83
2023/10/17 04:56:22;;;;;;;2.80;1.50;;;2.60;99.90;;;;;;5116449;27;20473;-79
2023/10/17 04:58:54;;;;;;;4.43;2.17;;;2.50;99.90;;;;;;5124205;27;20464;-79
2023/10/17 05:01:35;;;;;;;2.83;2.50;;;2.40;99.90;;;;;;5122202;27;20446;-79
2023/10/17 05:04:08;;;;;;;3.50;1.90;;;2.30;99.90;;;;;;5121137;27;20448;-79
2023/10/17 06:18:17;;;;;;;3.20;2.77;;;2.50;99.90;;;;;;5117378;27;20509;-78
2023/10/17 06:26:46;;;;;;;10.30;4.00;;;3.00;99.90;;;;;;5108929;27;20978;-79
2023/10/17 06:30:05;;;;;;;6.93;3.00;;;3.10;99.90;;;;;;5113634;27;20461;-79
2023/10/17 06:31:55;;;;;;;3.67;3.37;;;3.20;99.90;;;;;;5109637;27;20623;-79
2023/10/17 06:34:22;;;;;;;3.63;2.60;;;3.30;99.90;;;;;;5119242;27;20472;-79
2023/10/17 06:36:58;;;;;;;8.43;3.00;;;3.40;99.90;;;;;;5119647;27;21214;-78
2023/10/17 06:39:26;;;;;;;3.77;3.40;;;3.50;99.90;;;;;;5111167;27;20476;-78
2023/10/17 06:42:13;;;;;;;3.77;3.37;;;3.60;99.90;;;;;;5112638;27;20637;-78
2023/10/17 06:44:51;;;;;;;3.97;2.90;;;3.60;99.90;;;;;;5112848;27;20456;-78
2023/10/17 06:47:18;;;;;;;5.50;2.87;;;3.70;99.90;;;;;;5116963;27;20488;-79
2023/10/17 06:50:16;;;;;;;4.13;2.93;;;3.80;99.90;;;;;;5103579;27;21177;-79
2023/10/17 06:53:02;;;;;;;3.93;3.60;;;3.90;99.90;;;;;;5103699;27;20486;-79
2023/10/17 06:55:38;;;;;;;6.83;3.10;;;4.10;99.90;;;;;;5118773;27;20465;-79
2023/10/17 06:58:09;;;;;;;8.03;2.40;;;4.20;99.90;;;;;;5103044;27;20476;-79
2023/10/17 07:00:44;;;;;;;3.30;2.50;;;4.30;99.90;;;;;;5104428;27;20541;-79
2023/10/17 07:03:14;;;;;;;4.50;3.27;;;4.20;99.90;;;;;;5105326;27;20476;-79
2023/10/17 07:05:49;;;;;;;3.83;3.47;;;4.30;99.90;;;;;;5101089;27;20842;-78
2023/10/17 07:08:19;;;;;;;4.80;3.00;;;4.30;99.90;;;;;;5114927;27;20476;-79
2023/10/17 07:10:59;;;;;;;4.30;3.30;;;4.30;99.90;;;;;;5101859;27;20587;-79
2023/10/17 07:13:59;;;;;;;2.90;2.70;;;4.30;99.90;;;;;;5110589;27;20449;-79
2023/10/17 07:16:27;;;;;;;4.97;4.47;;;4.50;99.90;;;;;;5109648;27;20955;-79
2023/10/17 07:18:55;;;;;;;3.33;2.33;;;4.60;99.90;;;;;;5112772;27;20502;-79
2023/10/17 07:21:24;;;;;;;7.20;4.07;;;4.70;99.90;;;;;;5113498;27;20535;-79
2023/10/17 07:23:55;;;;;;;4.13;3.73;;;4.80;99.90;;;;;;5119966;27;20454;-79
2023/10/17 07:26:38;;;;;;;3.80;3.50;;;4.80;99.90;;;;;;5119657;27;20529;-79
2023/10/17 07:29:06;;;;;;;4.80;3.43;;;4.90;99.90;;;;;;5119303;27;20445;-79
2023/10/17 07:31:36;;;;;;;2.97;2.67;;;4.90;99.90;;;;;;5120022;27;20469;-79
2023/10/17 07:34:17;;;;;;;3.23;2.90;;;4.90;99.90;;;;;;5121640;27;21097;-78
2023/10/17 07:36:47;;;;;;;4.13;2.97;;;5.00;99.90;;;;;;5110870;27;20444;-79
2023/10/17 07:39:22;;;;;;;3.67;3.37;;;5.00;99.90;;;;;;5125831;27;20465;-79
2023/10/17 07:41:54;;;;;;;4.17;3.03;;;5.10;99.90;;;;;;5112909;27;20931;-79
2023/10/17 07:44:21;;;;;;;2.63;2.43;;;5.30;99.90;;;;;;5124531;27;20523;-79
2023/10/17 07:46:50;;;;;;;5.63;3.20;;;5.40;99.90;;;;;;5111380;27;20457;-78
2023/10/17 07:49:25;;;;;;;2.10;1.90;;;5.40;99.90;;;;;;5122736;27;20932;-78
2023/10/17 07:51:52;;;;;;;3.33;3.00;;;5.50;99.90;;;;;;5118767;27;20972;-79
2023/10/17 07:54:28;;;;;;;4.27;3.93;;;5.70;99.90;;;;;;5111667;27;20552;-79
2023/10/17 07:56:58;;;;;;;2.83;2.07;;;5.80;99.90;;;;;;5114240;27;20915;-78
2023/10/17 07:59:31;;;;;;;3.40;3.10;;;5.90;99.90;;;;;;5130135;27;20447;-78
2023/10/17 08:02:00;;;;;;;3.00;2.70;;;5.80;99.90;;;;;;5127266;27;20492;-78
2023/10/17 08:04:30;;;;;;;2.43;2.23;;;5.80;99.90;;;;;;5125841;27;20494;-78
2023/10/17 08:06:57;;;;;;;4.30;3.03;;;6.10;99.90;;;;;;5121582;27;20491;-79
2023/10/17 08:09:36;;;;;;;4.27;2.73;;;6.40;99.90;;;;;;5133306;27;20444;-79
2023/10/17 08:12:06;;;;;;;5.43;2.47;;;6.30;99.90;;;;;;5129325;27;21185;-79
2023/10/17 08:14:40;;;;;;;5.17;3.33;;;6.60;99.90;;;;;;5122447;27;20458;-79
2023/10/17 08:17:08;;;;;;;3.87;3.10;;;6.80;99.90;;;;;;5123808;27;20832;-79
2023/10/17 08:20:00;;;;;;;4.87;2.60;;;6.90;99.90;;;;;;5132025;27;20455;-79
2023/10/17 08:22:25;;;;;;;3.10;2.17;;;7.00;99.90;;;;;;5119169;27;20471;-79
2023/10/17 08:24:55;;;;;;;3.10;2.70;;;7.20;99.90;;;;;;5118554;27;20452;-79
2023/10/17 08:30:14;;;;;;;3.60;2.57;;;7.20;99.90;;;;;;5130403;27;20425;-80
2023/10/17 08:32:54;;;;;;;3.07;2.77;;;7.10;99.90;;;;;;5124422;27;20480;-79
2023/10/17 08:35:25;;;;;;;4.27;2.57;;;7.40;99.90;;;;;;5130843;27;20826;-79
2023/10/17 08:37:52;;;;;;;5.13;2.40;;;7.30;99.90;;;;;;5123881;27;21279;-79
2023/10/17 08:40:32;;;;;;;2.83;2.40;;;7.60;99.90;;;;;;5126802;27;20436;-80
2023/10/17 08:43:00;;;;;;;4.20;2.33;;;7.60;99.90;;;;;;5126601;27;20467;-79
2023/10/17 08:45:28;;;;;;;2.47;2.27;;;7.60;99.90;;;;;;5128401;27;20481;-79
2023/10/17 08:47:59;;;;;;;3.77;3.40;;;7.50;99.90;;;;;;5117665;27;20486;-79
2023/10/17 08:50:26;;;;;;;2.90;2.43;;;7.70;99.90;;;;;;5127442;27;20836;-79
2023/10/17 08:52:54;;;;;;;4.03;2.00;;;7.80;99.90;;;;;;5119747;27;20494;-80
2023/10/17 08:55:24;;;;;;;10.00;2.47;;;8.00;99.90;;;;;;5134712;27;20548;-79
2023/10/17 08:57:52;;;;;;;3.37;1.87;;;8.00;99.90;;;;;;5118143;27;21248;-80
2023/10/17 09:00:48;;;;;;;3.87;2.00;;;8.00;99.50;;;;;;5121838;27;20492;-79
2023/10/17 09:03:20;;;;;;;2.80;2.47;;;7.90;99.10;;;;;;5117488;27;20572;-80
2023/10/17 09:05:58;;;;;;;1.73;1.63;;;8.00;99.90;;;;;;5125417;27;20445;-79
2023/10/17 09:08:41;;;;;;;2.43;2.23;;;8.20;99.90;;;;;;5125650;27;20457;-79
2023/10/17 09:11:14;;;;;;;2.40;2.00;;;8.20;98.40;;;;;;5129340;27;20481;-80
2023/10/17 09:14:11;;;;;;;3.03;2.83;;;8.10;97.90;;;;;;5125930;27;20844;-79
2023/10/17 09:16:41;;;;;;;2.53;2.20;;;8.50;98.30;;;;;;5121876;27;20857;-80
2023/10/17 09:19:10;;;;;;;2.50;2.30;;;8.70;97.60;;;;;;5113701;27;20478;-80
2023/10/17 09:21:42;;;;;;;3.03;2.50;;;8.90;97.30;;;;;;5121152;27;20461;-79
2023/10/17 09:24:32;;;;;;;2.13;1.93;;;8.90;97.20;;;;;;5125669;27;20476;-79
2023/10/17 09:27:06;;;;;;;2.40;2.20;;;8.90;97.00;;;;;;5118157;27;20441;-80
2023/10/17 09:29:43;;;;;;;3.70;3.17;;;9.10;95.40;;;;;;5117213;27;21101;-79
2023/10/17 09:32:10;;;;;;;3.73;1.90;;;9.10;96.20;;;;;;5126865;27;20488;-79
2023/10/17 09:34:40;;;;;;;4.47;2.03;;;9.20;94.20;;;;;;5126928;27;20440;-79
2023/10/17 09:37:12;;;;;;;2.03;1.93;;;9.20;95.20;;;;;;5122895;27;20465;-79
2023/10/17 09:39:46;;;;;;;2.30;2.10;;;9.20;94.30;;;;;;5116630;27;20454;-79
2023/10/17 09:42:15;;;;;;;4.00;2.00;;;9.30;93.20;;;;;;5119277;27;20456;-78
2023/10/17 09:44:42;;;;;;;1.80;1.67;;;9.30;92.40;;;;;;5127227;27;20528;-79
2023/10/17 09:47:10;;;;;;;2.93;2.60;;;9.30;93.30;;;;;;5126525;27;20433;-79
2023/10/17 09:49:44;;;;;;;1.70;1.60;;;9.30;92.30;;;;;;5118954;27;20708;-79
2023/10/17 09:52:14;;;;;;;2.40;2.20;;;9.30;92.30;;;;;;5123924;27;20485;-79
2023/10/17 09:54:43;;;;;;;3.50;1.87;;;9.30;92.80;;;;;;5109115;27;20538;-79
2023/10/17 09:57:15;;;;;;;6.53;2.43;;;9.30;92.40;;;;;;5116324;27;20557;-79
2023/10/17 09:59:54;;;;;;;3.53;2.00;;;9.40;92.70;;;;;;5122344;27;20948;-79
2023/10/17 10:02:21;;;;;;;1.60;1.50;;;9.50;93.70;;;;;;5116425;27;20541;-79
2023/10/17 10:04:48;;;;;;;2.17;1.60;;;9.60;91.20;;;;;;5127475;27;20517;-79
2023/10/17 10:07:22;;;;;;;3.07;2.50;;;9.60;91.40;;;;;;5120786;27;20455;-80
2023/10/17 10:09:50;;;;;;;3.30;3.00;;;9.70;90.20;;;;;;5127718;27;20502;-78
2023/10/17 10:12:18;;;;;;;2.47;2.27;;;9.70;89.30;;;;;;5122733;27;20546;-78
2023/10/17 10:14:47;;;;;;;2.47;2.20;;;9.40;90.50;;;;;;5125023;27;20873;-78
2023/10/17 10:17:15;;;;;;;2.37;2.17;;;9.30;91.70;;;;;;5122764;27;21004;-79
2023/10/17 10:20:02;;;;;;;1.70;1.60;;;9.50;92.50;;;;;;5123505;27;20929;-79
2023/10/17 10:22:52;;;;;;;3.10;2.53;;;9.60;91.40;;;;;;5126639;27;20501;-80
2023/10/17 10:25:20;;;;;;;3.40;2.27;;;9.60;90.60;;;;;;5123472;27;20449;-79
2023/10/17 10:27:50;;;;;;;3.40;2.40;;;9.50;89.70;;;;;;5125489;27;20449;-79
2023/10/17 10:30:35;;;;;;;4.03;3.17;;;9.60;91.00;;;;;;5122759;27;20910;-79
2023/10/17 10:33:02;;;;;;;4.23;2.20;;;9.60;90.20;;;;;;5106768;27;20576;-79
2023/10/17 10:35:33;;;;;;;3.53;2.80;;;9.60;90.20;;;;;;5113667;27;20483;-79
2023/10/17 10:38:00;;;;;;;4.77;2.97;;;9.50;91.00;;;;;;5117937;27;20517;-79
2023/10/17 10:40:30;;;;;;;2.53;2.33;;;9.50;90.90;;;;;;5118283;27;20549;-78
2023/10/17 10:43:01;;;;;;;3.03;2.50;;;9.60;90.30;;;;;;5125187;27;20930;-80
2023/10/17 10:45:42;;;;;;;4.90;2.60;;;9.80;89.80;;;;;;5123318;27;20457;-78
2023/10/17 10:48:14;;;;;;;2.90;2.47;;;9.90;87.40;;;;;;5122549;27;20954;-81
2023/10/17 10:50:43;;;;;;;4.17;3.57;;;10.00;88.00;;;;;;5112931;27;20525;-81
2023/10/17 10:53:21;;;;;;;4.50;2.40;;;10.10;85.50;;;;;;5110277;27;20565;-78
2023/10/17 10:55:59;;;;;;;3.10;2.80;;;10.20;86.00;;;;;;5130859;27;20932;-77
2023/10/17 10:58:29;;;;;;;4.63;4.23;;;10.60;85.60;;;;;;5111873;27;20936;-78
2023/10/17 11:00:59;;;;;;;3.23;3.03;;;10.70;82.20;;;;;;5130905;27;20461;-78
2023/10/17 11:03:26;;;;;;;5.13;2.60;;;10.80;80.50;;;;;;5119563;27;20866;-78
2023/10/17 11:05:58;;;;;;;8.43;4.03;;;10.90;80.70;;;;;;5117878;27;20486;-79
2023/10/17 11:08:33;;;;;;;4.70;4.10;;;10.80;80.60;;;;;;5116718;27;20579;-78
2023/10/17 11:11:01;;;;;;;5.53;3.47;;;10.40;80.40;;;;;;5125879;27;20464;-79
2023/10/17 11:13:37;;;;;;;3.87;2.97;;;10.60;87.80;;;;;;5118873;27;20555;-79
2023/10/17 11:16:06;;;;;;;4.50;2.70;;;10.60;82.80;;;;;;5121519;27;20444;-77
2023/10/17 11:18:34;;;;;;;2.23;2.03;;;10.40;85.30;;;;;;5114415;27;20525;-77
2023/10/17 11:21:02;;;;;;;2.57;2.40;;;10.60;87.00;;;;;;5118178;27;20522;-78
2023/10/17 11:23:30;;;;;;;3.17;2.40;;;10.40;80.60;;;;;;5131018;27;20465;-77
2023/10/17 11:25:59;;;;;;;2.50;2.20;;;10.70;83.50;;;;;;5117388;27;20495;-77
2023/10/17 11:28:28;;;;;;;3.20;2.90;;;10.50;79.90;;;;;;5126398;27;20441;-79
2023/10/17 11:30:58;;;;;;;4.80;2.67;;;10.20;80.50;;;;;;5118945;27;20651;-78
2023/10/17 11:33:37;;;;;;;5.77;3.23;;;10.60;87.90;;;;;;5127525;27;20495;-78
2023/10/17 11:36:12;;;;;;;3.80;3.30;;;10.80;83.10;;;;;;5120131;27;20455;-79
2023/10/17 11:38:40;;;;;;;6.70;3.00;;;11.00;84.30;;;;;;5127827;27;20455;-78
2023/10/17 11:41:08;;;;;;;2.97;2.67;;;11.10;84.20;;;;;;5122745;27;20460;-78
2023/10/17 11:43:36;;;;;;;2.57;2.37;;;10.90;77.10;;;;;;5124321;27;20456;-78
2023/10/17 11:46:12;;;;;;;2.40;2.17;;;10.80;83.50;;;;;;5123972;27;20441;-78
2023/10/17 11:48:44;;;;;;;3.03;1.77;;;11.00;81.20;;;;;;5127458;27;20452;-78
2023/10/17 11:51:13;;;;;;;3.60;2.97;;;11.20;82.00;;;;;;5125005;27;20450;-78
2023/10/17 11:54:03;;;;;;;3.90;3.17;;;11.20;82.00;;;;;;5119838;27;20567;-78
2023/10/17 11:56:30;;;;;;;3.33;3.10;;;11.10;80.70;;;;;;5113355;27;20450;-79
2023/10/17 11:58:57;;;;;;;3.90;3.50;;;11.20;80.80;;;;;;5125063;27;20441;-78
2023/10/17 12:01:26;;;;;;;2.87;2.63;;;11.30;78.80;;;;;;5122848;27;20460;-79
2023/10/17 12:03:53;;;;;;;5.97;3.23;;;11.20;80.40;;;;;;5116271;27;20509;-79
2023/10/17 12:06:21;;;;;;;10.73;3.87;;;11.20;82.40;;;;;;5129305;27;20472;-79
2023/10/17 12:08:48;;;;;;;3.90;3.20;;;11.10;79.10;;;;;;5123359;27;20457;-78
2023/10/17 12:11:15;;;;;;;2.80;2.60;;;11.20;79.20;;;;;;5129312;27;20473;-78
2023/10/17 12:13:43;;;;;;;5.00;2.90;;;11.20;79.50;;;;;;5126714;27;21010;-78
2023/10/17 12:16:11;;;;;;;3.80;3.30;;;11.30;80.80;;;;;;5129826;27;20525;-79
2023/10/17 12:18:40;;;;;;;5.40;3.70;;;11.30;78.20;;;;;;5118541;27;20472;-78
2023/10/17 12:21:14;;;;;;;3.30;3.00;;;11.20;78.50;;;;;;5128726;27;20449;-79
2023/10/17 12:23:41;;;;;;;4.53;2.90;;;11.20;79.10;;;;;;5125222;27;20841;-79
2023/10/17 12:26:13;;;;;;;3.93;3.57;;;11.00;78.30;;;;;;5124110;27;20529;-79
2023/10/17 12:28:42;;;;;;;3.50;3.20;;;11.00;77.00;;;;;;5117861;27;20528;-78
2023/10/17 12:31:09;;;;;;;2.77;2.40;;;11.00;80.00;;;;;;5124598;27;20490;-78
2023/10/17 12:33:37;;;;;;;3.50;3.20;;;11.10;81.40;;;;;;5127528;27;20486;-79
2023/10/17 12:36:06;;;;;;;3.17;2.90;;;11.10;80.40;;;;;;5125968;27;20949;-78
2023/10/17 12:38:36;;;;;;;2.93;2.63;;;11.20;78.60;;;;;;5128410;27;20429;-79
2023/10/17 12:41:06;;;;;;;11.13;4.40;;;10.90;76.10;;;;;;5129426;27;20978;-79
2023/10/17 12:43:34;;;;;;;3.30;2.83;;;10.90;78.60;;;;;;5116132;27;20459;-79
2023/10/17 12:46:01;;;;;;;11.00;2.67;;;10.80;79.20;;;;;;5131945;27;20445;-78
2023/10/17 12:48:28;;;;;;;4.07;2.90;;;10.90;79.50;;;;;;5125165;27;20560;-78
2023/10/17 12:50:55;;;;;;;3.67;2.67;;;10.70;79.90;;;;;;5120439;27;20497;-78
2023/10/17 12:53:23;;;;;;;27.47;4.33;;;10.80;79.20;;;;;;5117138;27;20493;-78
2023/10/17 12:55:50;;;;;;;5.43;3.80;;;10.70;81.90;;;;;;5126357;27;20442;-79
2023/10/17 12:58:22;;;;;;;3.37;2.63;;;10.80;78.30;;;;;;5119742;27;21199;-78
2023/10/17 13:00:50;;;;;;;3.70;2.80;;;10.70;79.00;;;;;;5111192;27;20447;-78
2023/10/17 13:03:18;;;;;;;2.83;2.63;;;10.70;80.40;;;;;;5117584;27;20465;-79
2023/10/17 13:05:46;;;;;;;4.30;3.40;;;10.90;80.20;;;;;;5122464;27;20453;-80
2023/10/17 13:08:14;;;;;;;4.40;3.40;;;10.90;79.10;;;;;;5126048;27;20544;-79
2023/10/17 13:10:44;;;;;;;3.40;3.10;;;10.80;79.10;;;;;;5127523;27;20500;-79
2023/10/17 13:13:12;;;;;;;3.23;2.67;;;10.80;80.40;;;;;;5109995;27;21102;-79
2023/10/17 13:15:39;;;;;;;3.83;3.40;;;10.70;78.10;;;;;;5130275;27;20911;-80
2023/10/17 13:18:08;;;;;;;3.60;3.00;;;10.80;79.50;;;;;;5123064;27;20469;-80
2023/10/17 13:20:37;;;;;;;5.03;4.07;;;10.80;78.70;;;;;;5126890;27;20445;-80
2023/10/17 13:23:04;;;;;;;3.70;3.40;;;10.70;78.30;;;;;;5125714;27;20437;-79
2023/10/17 13:25:35;;;;;;;4.87;3.00;;;10.80;81.80;;;;;;5126925;27;20545;-79
2023/10/17 13:28:04;;;;;;;3.80;3.30;;;10.80;81.00;;;;;;5125174;27;20445;-80
2023/10/17 13:30:32;;;;;;;3.47;3.17;;;10.80;80.30;;;;;;5119267;27;20465;-80
2023/10/17 13:32:59;;;;;;;5.40;4.33;;;10.70;81.10;;;;;;5122684;27;20576;-80
2023/10/17 13:35:28;;;;;;;8.47;3.77;;;10.80;82.00;;;;;;5114537;27;20493;-80
2023/10/17 13:37:55;;;;;;;4.67;2.70;;;10.80;82.00;;;;;;5125018;27;20908;-80
2023/10/17 13:40:24;;;;;;;5.43;3.80;;;10.70;82.60;;;;;;5114772;27;20441;-80
2023/10/17 13:42:52;;;;;;;3.17;2.87;;;10.80;82.50;;;;;;5124970;27;20441;-80
2023/10/17 13:45:22;;;;;;;4.77;2.70;;;10.70;82.30;;;;;;5122599;27;20522;-80
2023/10/17 13:47:50;;;;;;;4.00;3.00;;;10.70;83.30;;;;;;5125891;27;20655;-79
2023/10/17 13:50:18;;;;;;;4.90;4.07;;;10.50;80.00;;;;;;5117762;27;20556;-79
2023/10/17 13:52:46;;;;;;;3.70;3.40;;;10.50;83.20;;;;;;5121083;27;20497;-79
2023/10/17 13:55:23;;;;;;;2.70;2.50;;;10.50;83.70;;;;;;5128473;27;20437;-79
2023/10/17 13:57:55;;;;;;;3.63;2.90;;;10.50;83.30;;;;;;5121305;27;20928;-80
2023/10/17 14:00:25;;;;;;;4.23;3.83;;;10.40;85.20;;;;;;5124672;27;20444;-80
2023/10/17 14:02:52;;;;;;;4.43;3.07;;;10.50;84.70;;;;;;5116124;27;20546;-80
2023/10/17 14:05:20;;;;;;;3.93;3.20;;;10.30;83.70;;;;;;5121871;27;20444;-80
2023/10/17 14:07:51;;;;;;;3.70;2.70;;;10.20;85.00;;;;;;5122146;27;20540;-79
2023/10/17 14:10:18;;;;;;;2.53;2.33;;;10.20;83.80;;;;;;5108495;27;20538;-80
2023/10/17 14:12:46;;;;;;;5.33;2.57;;;10.00;83.40;;;;;;5126715;27;20449;-80
2023/10/17 14:15:13;;;;;;;3.53;2.60;;;10.00;86.40;;;;;;5133142;27;20469;-80
2023/10/17 14:17:46;;;;;;;3.53;3.23;;;10.10;86.90;;;;;;5119145;27;20468;-79
2023/10/17 14:20:18;;;;;;;3.30;3.00;;;10.10;86.10;;;;;;5126436;27;20944;-79
2023/10/17 14:23:08;;;;;;;4.70;2.70;;;10.10;86.00;;;;;;5125506;27;20484;-79
2023/10/17 14:28:21;;;;;;;3.90;3.50;;;10.20;87.50;;;;;;5118338;27;20509;-79
2023/10/17 14:30:47;;;;;;;3.40;3.10;;;10.10;87.50;;;;;;5115154;27;20446;-80
2023/10/17 14:33:16;;;;;;;3.10;2.70;;;10.00;86.70;;;;;;5124853;27;20524;-80
2023/10/17 14:35:44;;;;;;;4.37;2.90;;;9.80;88.50;;;;;;5121048;27;20464;-80
2023/10/17 14:38:11;;;;;;;2.67;2.47;;;9.80;90.10;;;;;;5127223;27;20441;-80
2023/10/17 14:40:38;;;;;;;3.90;3.37;;;9.80;89.50;;;;;;5126921;27;20445;-81
2023/10/17 14:43:08;;;;;;;5.70;3.70;;;9.70;89.50;;;;;;5127806;27;20471;-80